Accueil
METAR-TAF:

METAR-TAF

Aéroports :

Greenville Downtown Airport

Greenville, Caroline du Sud, États-Unis

latitude: 34-50-46N, longitude: 082-20-46W, altitude: 319 m

Observation

Le bulletin a été fait il y a 42 minutes, à 20:53 UTC
Vent 7 kt de nord
Température 17°C
Humidité 36%
Pression 1021 hPa
Visibilité: 16.1 km
Ciel clair

METAR: KGMU 202053Z AUTO 01007KT 10SM CLR 17/02 A3015 RMK AO2 SLP210 T01720017 53002

Heure: 16:35 (21:35 UTC)

Prévision

Le bulletin a été fait il y a 3 heures et 54 minutes, à 17:41 UTC
Prévision valable du 20 à 18 UTC au 21 à 18 UTC
Vent 4 kt de direction variable
Visibilité: 10 km
Quelques nuages à une hauteur de 25000 ft
A partir de 21 à 1500 UTC
Vent 4 kt de sud/sud-ouest
Visibilité: 10 km
Nuages épars à une hauteur de 20000 ft

TAF: KGMU 201741Z 2018/2118 VRB04KT P6SM FEW250 FM211500 21004KT P6SM SCT200

Observations et prévisions météorologiques de plus de 4000 aéroports (messages METAR et TAF).

Les stations disponibles sont représentées par des disques jaunes et rouges sur la carte.

Passer la souris dessus pour voir le nom de la station.

Cliquer dessus pour voir les observations et prévisions météorologiques.

Pour changer de carte: cliquez sur les boutons verts avec une croix noire pour zoomer, sur le bouton vert avec un tiret pour effectuer un zoom arrière, ou sur les flèches vertes pour les cartes adjacentes.


METAR-TAF: